sensor_id;sensor_type;location;lat;lon;timestamp;temperature;humidity
11744;DHT22;5929;51.906;7.674;2024-03-23T00:55:03;6.10;99.90
11744;DHT22;5929;51.906;7.674;2024-03-23T00:57:28;6.10;99.90
11744;DHT22;5929;51.906;7.674;2024-03-23T00:59:55;6.10;99.90
11744;DHT22;5929;51.906;7.674;2024-03-23T01:02:21;6.10;99.90
11744;DHT22;5929;51.906;7.674;2024-03-23T01:04:48;6.20;99.90
11744;DHT22;5929;51.906;7.674;2024-03-23T01:07:14;6.30;99.90
11744;DHT22;5929;51.906;7.674;2024-03-23T01:09:41;6.30;99.90
11744;DHT22;5929;51.906;7.674;2024-03-23T01:12:08;6.40;99.90
11744;DHT22;5929;51.906;7.674;2024-03-23T01:14:36;6.40;99.90
11744;DHT22;5929;51.906;7.674;2024-03-23T01:17:02;6.40;99.90
11744;DHT22;5929;51.906;7.674;2024-03-23T01:19:29;6.50;99.90
11744;DHT22;5929;51.906;7.674;2024-03-23T01:21:56;6.50;99.90
11744;DHT22;5929;51.906;7.674;2024-03-23T01:24:22;6.40;99.90
11744;DHT22;5929;51.906;7.674;2024-03-23T01:26:48;6.30;99.90
11744;DHT22;5929;51.906;7.674;2024-03-23T01:29:16;6.40;99.90
11744;DHT22;5929;51.906;7.674;2024-03-23T01:31:42;6.40;99.90
11744;DHT22;5929;51.906;7.674;2024-03-23T01:34:09;6.40;99.90
11744;DHT22;5929;51.906;7.674;2024-03-23T01:36:35;6.40;99.90
11744;DHT22;5929;51.906;7.674;2024-03-23T01:39:02;6.40;99.90
11744;DHT22;5929;51.906;7.674;2024-03-23T01:41:28;6.40;99.90
11744;DHT22;5929;51.906;7.674;2024-03-23T01:43:55;6.40;99.90
11744;DHT22;5929;51.906;7.674;2024-03-23T01:46:22;6.40;99.90
11744;DHT22;5929;51.906;7.674;2024-03-23T01:48:50;6.40;99.90
11744;DHT22;5929;51.906;7.674;2024-03-23T01:51:16;6.40;99.90
11744;DHT22;5929;51.906;7.674;2024-03-23T01:53:43;6.40;99.90
11744;DHT22;5929;51.906;7.674;2024-03-23T01:56:11;6.40;99.90
11744;DHT22;5929;51.906;7.674;2024-03-23T01:58:38;6.40;99.90
11744;DHT22;5929;51.906;7.674;2024-03-23T02:01:04;6.40;99.90
11744;DHT22;5929;51.906;7.674;2024-03-23T02:03:32;6.30;99.90
11744;DHT22;5929;51.906;7.674;2024-03-23T02:05:58;6.30;99.90
11744;DHT22;5929;51.906;7.674;2024-03-23T02:08:25;6.20;99.90
11744;DHT22;5929;51.906;7.674;2024-03-23T02:10:51;6.30;99.90
11744;DHT22;5929;51.906;7.674;2024-03-23T02:13:18;6.20;99.90
11744;DHT22;5929;51.906;7.674;2024-03-23T02:15:44;6.30;99.90
11744;DHT22;5929;51.906;7.674;2024-03-23T02:18:11;6.30;99.90
11744;DHT22;5929;51.906;7.674;2024-03-23T02:20:39;6.20;99.90
11744;DHT22;5929;51.906;7.674;2024-03-23T02:23:13;6.20;99.90
11744;DHT22;5929;51.906;7.674;2024-03-23T02:25:39;6.30;99.90
11744;DHT22;5929;51.906;7.674;2024-03-23T02:28:05;6.20;99.90
11744;DHT22;5929;51.906;7.674;2024-03-23T02:30:31;6.20;99.90
11744;DHT22;5929;51.906;7.674;2024-03-23T02:32:59;6.20;99.90
11744;DHT22;5929;51.906;7.674;2024-03-23T02:35:28;6.10;99.90
11744;DHT22;5929;51.906;7.674;2024-03-23T02:37:55;6.20;99.90
11744;DHT22;5929;51.906;7.674;2024-03-23T02:40:23;6.20;99.90
11744;DHT22;5929;51.906;7.674;2024-03-23T02:42:51;6.20;99.90
11744;DHT22;5929;51.906;7.674;2024-03-23T02:45:17;6.30;99.90
11744;DHT22;5929;51.906;7.674;2024-03-23T02:47:44;6.20;99.90
11744;DHT22;5929;51.906;7.674;2024-03-23T02:50:09;6.30;99.90
11744;DHT22;5929;51.906;7.674;2024-03-23T02:52:36;6.30;99.90
11744;DHT22;5929;51.906;7.674;2024-03-23T02:55:03;6.30;99.90
11744;DHT22;5929;51.906;7.674;2024-03-23T02:57:32;6.30;99.90
11744;DHT22;5929;51.906;7.674;2024-03-23T02:59:58;6.30;99.90
11744;DHT22;5929;51.906;7.674;2024-03-23T03:02:24;6.30;99.90
11744;DHT22;5929;51.906;7.674;2024-03-23T03:04:50;6.30;99.90
11744;DHT22;5929;51.906;7.674;2024-03-23T03:07:19;6.30;99.90
11744;DHT22;5929;51.906;7.674;2024-03-23T03:09:45;6.30;99.90
11744;DHT22;5929;51.906;7.674;2024-03-23T03:12:12;6.20;99.90
11744;DHT22;5929;51.906;7.674;2024-03-23T03:14:39;6.20;99.90
11744;DHT22;5929;51.906;7.674;2024-03-23T03:17:06;6.10;99.90
11744;DHT22;5929;51.906;7.674;2024-03-23T03:19:32;6.10;99.90
11744;DHT22;5929;51.906;7.674;2024-03-23T03:21:59;6.10;99.90
11744;DHT22;5929;51.906;7.674;2024-03-23T03:24:25;6.10;99.90
11744;DHT22;5929;51.906;7.674;2024-03-23T03:26:51;6.10;99.90
11744;DHT22;5929;51.906;7.674;2024-03-23T03:29:17;6.00;99.90
11744;DHT22;5929;51.906;7.674;2024-03-23T03:31:46;6.00;99.90
11744;DHT22;5929;51.906;7.674;2024-03-23T03:34:12;6.00;99.90
11744;DHT22;5929;51.906;7.674;2024-03-23T03:36:38;6.10;99.90
11744;DHT22;5929;51.906;7.674;2024-03-23T03:39:04;6.10;99.90
11744;DHT22;5929;51.906;7.674;2024-03-23T03:41:32;6.00;99.90
11744;DHT22;5929;51.906;7.674;2024-03-23T03:43:58;6.10;99.90
11744;DHT22;5929;51.906;7.674;2024-03-23T03:46:27;6.20;99.90
11744;DHT22;5929;51.906;7.674;2024-03-23T03:48:55;6.10;99.90
11744;DHT22;5929;51.906;7.674;2024-03-23T03:51:22;6.10;99.90
11744;DHT22;5929;51.906;7.674;2024-03-23T03:53:48;6.10;99.90
11744;DHT22;5929;51.906;7.674;2024-03-23T03:56:17;6.10;99.90
11744;DHT22;5929;51.906;7.674;2024-03-23T03:58:43;6.10;99.90
11744;DHT22;5929;51.906;7.674;2024-03-23T04:01:10;6.10;99.90
11744;DHT22;5929;51.906;7.674;2024-03-23T04:03:36;6.10;99.90
11744;DHT22;5929;51.906;7.674;2024-03-23T04:06:04;6.10;99.90
11744;DHT22;5929;51.906;7.674;2024-03-23T04:08:30;6.10;99.90
11744;DHT22;5929;51.906;7.674;2024-03-23T04:10:56;6.10;99.90
11744;DHT22;5929;51.906;7.674;2024-03-23T04:13:22;6.10;99.90
11744;DHT22;5929;51.906;7.674;2024-03-23T04:15:53;6.10;99.90
11744;DHT22;5929;51.906;7.674;2024-03-23T04:18:19;6.10;99.90
11744;DHT22;5929;51.906;7.674;2024-03-23T04:20:46;6.20;99.90
11744;DHT22;5929;51.906;7.674;2024-03-23T04:23:13;6.10;99.90
11744;DHT22;5929;51.906;7.674;2024-03-23T04:25:40;6.20;99.90
11744;DHT22;5929;51.906;7.674;2024-03-23T04:28:06;6.20;99.90
11744;DHT22;5929;51.906;7.674;2024-03-23T04:30:33;6.20;99.90
11744;DHT22;5929;51.906;7.674;2024-03-23T04:32:59;6.10;99.90
11744;DHT22;5929;51.906;7.674;2024-03-23T04:35:26;6.10;99.90
11744;DHT22;5929;51.906;7.674;2024-03-23T04:37:53;6.10;99.90
11744;DHT22;5929;51.906;7.674;2024-03-23T04:40:22;6.10;99.90
11744;DHT22;5929;51.906;7.674;2024-03-23T04:42:51;6.10;99.90
11744;DHT22;5929;51.906;7.674;2024-03-23T04:45:18;6.10;99.90
11744;DHT22;5929;51.906;7.674;2024-03-23T04:47:45;6.10;99.90
11744;DHT22;5929;51.906;7.674;2024-03-23T04:50:12;6.10;99.90
11744;DHT22;5929;51.906;7.674;2024-03-23T04:52:39;6.10;99.90
11744;DHT22;5929;51.906;7.674;2024-03-23T04:55:06;6.10;99.90
11744;DHT22;5929;51.906;7.674;2024-03-23T04:57:38;6.10;99.90
11744;DHT22;5929;51.906;7.674;2024-03-23T05:00:06;6.10;99.90
11744;DHT22;5929;51.906;7.674;2024-03-23T05:02:43;6.00;99.90
11744;DHT22;5929;51.906;7.674;2024-03-23T05:05:09;6.00;99.90
11744;DHT22;5929;51.906;7.674;2024-03-23T05:07:36;6.00;99.90
11744;DHT22;5929;51.906;7.674;2024-03-23T05:10:01;6.00;99.90
11744;DHT22;5929;51.906;7.674;2024-03-23T05:12:28;6.00;99.90
11744;DHT22;5929;51.906;7.674;2024-03-23T05:14:56;6.00;99.90
11744;DHT22;5929;51.906;7.674;2024-03-23T05:17:23;6.00;99.90
11744;DHT22;5929;51.906;7.674;2024-03-23T05:19:48;6.00;99.90
11744;DHT22;5929;51.906;7.674;2024-03-23T05:22:15;5.90;99.90
11744;DHT22;5929;51.906;7.674;2024-03-23T05:24:41;5.90;99.90
11744;DHT22;5929;51.906;7.674;2024-03-23T05:27:08;5.90;99.90
11744;DHT22;5929;51.906;7.674;2024-03-23T05:29:34;5.90;99.90
11744;DHT22;5929;51.906;7.674;2024-03-23T05:32:02;5.90;99.90
11744;DHT22;5929;51.906;7.674;2024-03-23T05:34:28;5.90;99.90
11744;DHT22;5929;51.906;7.674;2024-03-23T05:36:57;5.90;99.90
11744;DHT22;5929;51.906;7.674;2024-03-23T05:39:23;5.90;99.90
11744;DHT22;5929;51.906;7.674;2024-03-23T05:41:50;5.80;99.90
11744;DHT22;5929;51.906;7.674;2024-03-23T05:44:18;5.80;99.90
11744;DHT22;5929;51.906;7.674;2024-03-23T05:46:47;5.80;99.90
11744;DHT22;5929;51.906;7.674;2024-03-23T05:49:15;5.80;99.90
11744;DHT22;5929;51.906;7.674;2024-03-23T05:51:42;5.80;99.90
11744;DHT22;5929;51.906;7.674;2024-03-23T05:54:08;5.80;99.90
11744;DHT22;5929;51.906;7.674;2024-03-23T05:56:35;5.80;99.90
11744;DHT22;5929;51.906;7.674;2024-03-23T05:59:01;5.90;99.90
11744;DHT22;5929;51.906;7.674;2024-03-23T06:01:29;5.90;99.90
11744;DHT22;5929;51.906;7.674;2024-03-23T06:03:56;5.90;99.90
11744;DHT22;5929;51.906;7.674;2024-03-23T06:06:24;5.80;99.90
11744;DHT22;5929;51.906;7.674;2024-03-23T06:08:50;5.80;99.90
11744;DHT22;5929;51.906;7.674;2024-03-23T06:11:17;5.80;99.90
11744;DHT22;5929;51.906;7.674;2024-03-23T06:13:42;5.80;99.90
11744;DHT22;5929;51.906;7.674;2024-03-23T06:16:09;5.80;99.90
11744;DHT22;5929;51.906;7.674;2024-03-23T06:18:35;5.90;99.90
11744;DHT22;5929;51.906;7.674;2024-03-23T06:21:03;5.90;99.90
11744;DHT22;5929;51.906;7.674;2024-03-23T06:23:30;5.80;99.90
11744;DHT22;5929;51.906;7.674;2024-03-23T06:25:57;5.90;99.90
11744;DHT22;5929;51.906;7.674;2024-03-23T06:28:23;5.90;99.90
11744;DHT22;5929;51.906;7.674;2024-03-23T06:30:50;5.90;99.90
11744;DHT22;5929;51.906;7.674;2024-03-23T06:33:16;5.90;99.90
11744;DHT22;5929;51.906;7.674;2024-03-23T06:35:43;6.00;99.90
11744;DHT22;5929;51.906;7.674;2024-03-23T06:38:08;6.00;99.90
11744;DHT22;5929;51.906;7.674;2024-03-23T06:40:37;6.00;99.90
11744;DHT22;5929;51.906;7.674;2024-03-23T06:43:03;6.10;99.90
11744;DHT22;5929;51.906;7.674;2024-03-23T06:45:31;6.10;99.90
11744;DHT22;5929;51.906;7.674;2024-03-23T06:47:57;6.10;99.90
11744;DHT22;5929;51.906;7.674;2024-03-23T06:50:24;6.20;99.90
11744;DHT22;5929;51.906;7.674;2024-03-23T06:52:52;6.20;99.90
11744;DHT22;5929;51.906;7.674;2024-03-23T06:55:17;6.20;99.90
11744;DHT22;5929;51.906;7.674;2024-03-23T06:57:46;6.20;99.90
11744;DHT22;5929;51.906;7.674;2024-03-23T07:00:13;6.20;99.90
11744;DHT22;5929;51.906;7.674;2024-03-23T07:02:41;6.20;99.90
11744;DHT22;5929;51.906;7.674;2024-03-23T07:05:07;6.20;99.90
11744;DHT22;5929;51.906;7.674;2024-03-23T07:07:34;6.20;99.90
11744;DHT22;5929;51.906;7.674;2024-03-23T07:10:00;6.20;99.90
11744;DHT22;5929;51.906;7.674;2024-03-23T07:12:27;6.30;99.90
11744;DHT22;5929;51.906;7.674;2024-03-23T07:14:54;6.30;99.90
11744;DHT22;5929;51.906;7.674;2024-03-23T07:17:21;6.40;99.90
11744;DHT22;5929;51.906;7.674;2024-03-23T07:19:47;6.40;99.90
11744;DHT22;5929;51.906;7.674;2024-03-23T07:22:14;6.40;99.90
11744;DHT22;5929;51.906;7.674;2024-03-23T07:24:40;6.40;99.90
11744;DHT22;5929;51.906;7.674;2024-03-23T07:27:07;6.40;99.90
11744;DHT22;5929;51.906;7.674;2024-03-23T07:29:35;6.40;99.90
11744;DHT22;5929;51.906;7.674;2024-03-23T07:32:04;6.50;99.90
11744;DHT22;5929;51.906;7.674;2024-03-23T07:34:30;6.50;99.90
11744;DHT22;5929;51.906;7.674;2024-03-23T07:36:57;6.60;99.90
11744;DHT22;5929;51.906;7.674;2024-03-23T07:39:22;6.60;99.90
11744;DHT22;5929;51.906;7.674;2024-03-23T07:41:50;6.60;99.90
11744;DHT22;5929;51.906;7.674;2024-03-23T07:44:16;6.60;99.90
11744;DHT22;5929;51.906;7.674;2024-03-23T07:46:43;6.60;99.90
11744;DHT22;5929;51.906;7.674;2024-03-23T07:49:10;6.60;99.90
11744;DHT22;5929;51.906;7.674;2024-03-23T07:51:37;6.70;99.90
11744;DHT22;5929;51.906;7.674;2024-03-23T07:54:04;6.80;99.90
11744;DHT22;5929;51.906;7.674;2024-03-23T07:56:31;6.90;99.90
11744;DHT22;5929;51.906;7.674;2024-03-23T07:58:57;6.90;99.90
11744;DHT22;5929;51.906;7.674;2024-03-23T08:01:24;7.00;99.90
11744;DHT22;5929;51.906;7.674;2024-03-23T08:03:50;7.00;99.90
11744;DHT22;5929;51.906;7.674;2024-03-23T08:06:19;7.10;99.90
11744;DHT22;5929;51.906;7.674;2024-03-23T08:08:47;7.20;99.90
11744;DHT22;5929;51.906;7.674;2024-03-23T08:11:14;7.30;99.90
11744;DHT22;5929;51.906;7.674;2024-03-23T08:13:41;7.50;99.90
11744;DHT22;5929;51.906;7.674;2024-03-23T08:16:08;7.80;99.90
11744;DHT22;5929;51.906;7.674;2024-03-23T08:18:35;8.00;99.90
11744;DHT22;5929;51.906;7.674;2024-03-23T08:21:03;8.20;99.90
11744;DHT22;5929;51.906;7.674;2024-03-23T08:23:31;8.00;99.90
11744;DHT22;5929;51.906;7.674;2024-03-23T08:26:00;7.90;99.90
11744;DHT22;5929;51.906;7.674;2024-03-23T08:28:26;7.90;99.90
11744;DHT22;5929;51.906;7.674;2024-03-23T08:30:54;7.80;99.90
11744;DHT22;5929;51.906;7.674;2024-03-23T08:33:20;7.70;99.90
11744;DHT22;5929;51.906;7.674;2024-03-23T08:35:59;7.70;99.90
11744;DHT22;5929;51.906;7.674;2024-03-23T08:38:26;7.60;99.90
11744;DHT22;5929;51.906;7.674;2024-03-23T08:40:58;7.60;99.90
11744;DHT22;5929;51.906;7.674;2024-03-23T08:43:24;7.80;99.90
11744;DHT22;5929;51.906;7.674;2024-03-23T08:45:51;7.90;99.90
11744;DHT22;5929;51.906;7.674;2024-03-23T08:48:18;7.90;99.90
11744;DHT22;5929;51.906;7.674;2024-03-23T08:50:46;8.10;99.90
11744;DHT22;5929;51.906;7.674;2024-03-23T08:53:12;8.20;99.90
11744;DHT22;5929;51.906;7.674;2024-03-23T08:55:39;8.20;99.90
11744;DHT22;5929;51.906;7.674;2024-03-23T08:58:06;8.20;99.90
11744;DHT22;5929;51.906;7.674;2024-03-23T09:00:35;8.20;99.90
11744;DHT22;5929;51.906;7.674;2024-03-23T09:03:01;8.20;99.90
11744;DHT22;5929;51.906;7.674;2024-03-23T09:05:28;8.30;99.90
11744;DHT22;5929;51.906;7.674;2024-03-23T09:07:58;8.20;99.90
11744;DHT22;5929;51.906;7.674;2024-03-23T09:10:25;8.20;99.90
11744;DHT22;5929;51.906;7.674;2024-03-23T09:12:51;8.20;99.90
11744;DHT22;5929;51.906;7.674;2024-03-23T09:15:19;8.30;99.90
11744;DHT22;5929;51.906;7.674;2024-03-23T09:17:45;8.30;99.90
11744;DHT22;5929;51.906;7.674;2024-03-23T09:20:12;8.40;99.90
11744;DHT22;5929;51.906;7.674;2024-03-23T09:22:38;8.40;99.90
11744;DHT22;5929;51.906;7.674;2024-03-23T09:25:08;8.50;99.90
11744;DHT22;5929;51.906;7.674;2024-03-23T09:27:34;8.70;99.90
11744;DHT22;5929;51.906;7.674;2024-03-23T09:30:00;8.80;99.90
11744;DHT22;5929;51.906;7.674;2024-03-23T09:32:28;8.50;99.90
11744;DHT22;5929;51.906;7.674;2024-03-23T09:34:54;7.70;99.90
11744;DHT22;5929;51.906;7.674;2024-03-23T09:37:20;7.20;99.90
11744;DHT22;5929;51.906;7.674;2024-03-23T09:39:49;6.80;99.90
11744;DHT22;5929;51.906;7.674;2024-03-23T09:42:16;6.40;99.90
11744;DHT22;5929;51.906;7.674;2024-03-23T09:44:44;6.30;99.90
11744;DHT22;5929;51.906;7.674;2024-03-23T09:47:10;6.20;99.90
11744;DHT22;5929;51.906;7.674;2024-03-23T09:49:38;6.10;99.90
11744;DHT22;5929;51.906;7.674;2024-03-23T09:52:08;6.20;99.90
11744;DHT22;5929;51.906;7.674;2024-03-23T09:54:35;6.20;99.90
11744;DHT22;5929;51.906;7.674;2024-03-23T09:57:01;6.20;99.90
11744;DHT22;5929;51.906;7.674;2024-03-23T09:59:29;6.30;99.90
11744;DHT22;5929;51.906;7.674;2024-03-23T10:01:55;6.50;99.90
11744;DHT22;5929;51.906;7.674;2024-03-23T10:04:40;6.70;99.90
11744;DHT22;5929;51.906;7.674;2024-03-23T10:07:11;7.00;99.90
11744;DHT22;5929;51.906;7.674;2024-03-23T10:09:41;7.20;99.90
11744;DHT22;5929;51.906;7.674;2024-03-23T10:12:10;7.20;99.90
11744;DHT22;5929;51.906;7.674;2024-03-23T10:14:37;7.20;99.90
11744;DHT22;5929;51.906;7.674;2024-03-23T10:17:14;7.20;99.90
11744;DHT22;5929;51.906;7.674;2024-03-23T10:19:44;7.30;99.90
11744;DHT22;5929;51.906;7.674;2024-03-23T10:22:14;7.50;99.90
11744;DHT22;5929;51.906;7.674;2024-03-23T10:24:41;7.60;99.90
11744;DHT22;5929;51.906;7.674;2024-03-23T10:27:07;7.90;99.90
11744;DHT22;5929;51.906;7.674;2024-03-23T10:29:34;8.30;99.90
11744;DHT22;5929;51.906;7.674;2024-03-23T10:32:09;8.50;99.90
11744;DHT22;5929;51.906;7.674;2024-03-23T10:34:37;8.70;99.90
11744;DHT22;5929;51.906;7.674;2024-03-23T10:37:05;8.90;99.90
11744;DHT22;5929;51.906;7.674;2024-03-23T10:39:34;9.00;99.90
11744;DHT22;5929;51.906;7.674;2024-03-23T10:42:04;8.90;99.90
11744;DHT22;5929;51.906;7.674;2024-03-23T10:44:32;8.80;99.90
11744;DHT22;5929;51.906;7.674;2024-03-23T10:47:01;8.90;99.90
11744;DHT22;5929;51.906;7.674;2024-03-23T10:49:29;8.90;99.90
11744;DHT22;5929;51.906;7.674;2024-03-23T10:51:57;9.10;99.90
11744;DHT22;5929;51.906;7.674;2024-03-23T10:54:25;9.20;99.90
11744;DHT22;5929;51.906;7.674;2024-03-23T10:56:56;9.40;99.90
11744;DHT22;5929;51.906;7.674;2024-03-23T10:59:24;9.80;99.90
11744;DHT22;5929;51.906;7.674;2024-03-23T11:01:57;10.00;99.90
11744;DHT22;5929;51.906;7.674;2024-03-23T11:04:35;10.40;99.90
11744;DHT22;5929;51.906;7.674;2024-03-23T11:07:01;10.70;99.90
11744;DHT22;5929;51.906;7.674;2024-03-23T11:09:42;10.90;99.90
11744;DHT22;5929;51.906;7.674;2024-03-23T11:12:40;11.10;99.90
11744;DHT22;5929;51.906;7.674;2024-03-23T11:15:12;11.20;99.90
11744;DHT22;5929;51.906;7.674;2024-03-23T11:17:38;11.50;99.90
11744;DHT22;5929;51.906;7.674;2024-03-23T11:20:06;11.50;99.90
11744;DHT22;5929;51.906;7.674;2024-03-23T11:22:45;11.10;99.90
11744;DHT22;5929;51.906;7.674;2024-03-23T11:25:18;10.60;99.90
11744;DHT22;5929;51.906;7.674;2024-03-23T11:27:46;9.40;99.90
11744;DHT22;5929;51.906;7.674;2024-03-23T11:30:15;7.80;99.90
11744;DHT22;5929;51.906;7.674;2024-03-23T11:32:41;6.50;99.90
11744;DHT22;5929;51.906;7.674;2024-03-23T11:35:09;5.80;99.90
11744;DHT22;5929;51.906;7.674;2024-03-23T11:37:38;5.60;99.90
11744;DHT22;5929;51.906;7.674;2024-03-23T11:40:19;5.60;99.90
11744;DHT22;5929;51.906;7.674;2024-03-23T11:42:47;5.50;99.90
11744;DHT22;5929;51.906;7.674;2024-03-23T11:45:21;5.60;99.90
11744;DHT22;5929;51.906;7.674;2024-03-23T11:48:02;5.60;99.90
11744;DHT22;5929;51.906;7.674;2024-03-23T11:50:29;5.70;99.90
11744;DHT22;5929;51.906;7.674;2024-03-23T11:53:07;5.90;99.90
11744;DHT22;5929;51.906;7.674;2024-03-23T11:55:46;6.20;99.90
11744;DHT22;5929;51.906;7.674;2024-03-23T11:58:13;6.90;99.90
11744;DHT22;5929;51.906;7.674;2024-03-23T12:00:40;7.90;99.90
11744;DHT22;5929;51.906;7.674;2024-03-23T12:03:06;8.90;99.90
11744;DHT22;5929;51.906;7.674;2024-03-23T12:05:33;9.90;99.90
11744;DHT22;5929;51.906;7.674;2024-03-23T12:08:22;10.60;99.90
11744;DHT22;5929;51.906;7.674;2024-03-23T12:10:53;10.70;99.90
11744;DHT22;5929;51.906;7.674;2024-03-23T12:13:20;11.10;99.90
11744;DHT22;5929;51.906;7.674;2024-03-23T12:15:49;11.70;99.90
11744;DHT22;5929;51.906;7.674;2024-03-23T12:18:15;12.10;99.90
11744;DHT22;5929;51.906;7.674;2024-03-23T12:20:42;12.60;99.90
11744;DHT22;5929;51.906;7.674;2024-03-23T12:23:09;12.90;99.90
11744;DHT22;5929;51.906;7.674;2024-03-23T12:25:37;12.50;99.90
11744;DHT22;5929;51.906;7.674;2024-03-23T12:28:05;12.70;99.90
11744;DHT22;5929;51.906;7.674;2024-03-23T12:30:34;13.10;99.90
11744;DHT22;5929;51.906;7.674;2024-03-23T12:33:00;12.50;99.90
11744;DHT22;5929;51.906;7.674;2024-03-23T12:35:29;11.60;99.90
11744;DHT22;5929;51.906;7.674;2024-03-23T12:37:55;11.80;99.90
11744;DHT22;5929;51.906;7.674;2024-03-23T12:40:22;11.70;99.90
11744;DHT22;5929;51.906;7.674;2024-03-23T12:42:48;11.00;99.90
11744;DHT22;5929;51.906;7.674;2024-03-23T12:45:16;10.00;99.90
11744;DHT22;5929;51.906;7.674;2024-03-23T12:47:42;9.30;99.90
11744;DHT22;5929;51.906;7.674;2024-03-23T12:50:09;9.00;99.90
11744;DHT22;5929;51.906;7.674;2024-03-23T12:52:35;9.10;99.90
11744;DHT22;5929;51.906;7.674;2024-03-23T12:55:02;9.60;99.90
11744;DHT22;5929;51.906;7.674;2024-03-23T12:57:29;9.70;99.90
11744;DHT22;5929;51.906;7.674;2024-03-23T12:59:56;10.70;99.90
11744;DHT22;5929;51.906;7.674;2024-03-23T13:02:24;12.10;99.90
11744;DHT22;5929;51.906;7.674;2024-03-23T13:04:51;12.70;99.90
11744;DHT22;5929;51.906;7.674;2024-03-23T13:07:18;12.80;99.90
11744;DHT22;5929;51.906;7.674;2024-03-23T13:09:45;13.20;99.90
11744;DHT22;5929;51.906;7.674;2024-03-23T13:12:11;12.50;99.90
11744;DHT22;5929;51.906;7.674;2024-03-23T13:14:38;11.80;99.90
11744;DHT22;5929;51.906;7.674;2024-03-23T13:17:04;11.80;99.90
11744;DHT22;5929;51.906;7.674;2024-03-23T13:19:33;11.20;99.90
11744;DHT22;5929;51.906;7.674;2024-03-23T13:21:59;10.50;99.90
11744;DHT22;5929;51.906;7.674;2024-03-23T13:24:27;10.10;99.90
11744;DHT22;5929;51.906;7.674;2024-03-23T13:26:54;9.90;99.90
11744;DHT22;5929;51.906;7.674;2024-03-23T13:29:21;9.90;99.90
11744;DHT22;5929;51.906;7.674;2024-03-23T13:31:48;10.10;99.90
11744;DHT22;5929;51.906;7.674;2024-03-23T13:34:15;10.00;99.90
11744;DHT22;5929;51.906;7.674;2024-03-23T13:36:43;10.20;99.90
11744;DHT22;5929;51.906;7.674;2024-03-23T13:39:10;10.20;99.90
11744;DHT22;5929;51.906;7.674;2024-03-23T13:41:37;10.10;99.90
11744;DHT22;5929;51.906;7.674;2024-03-23T13:44:05;9.90;99.90
11744;DHT22;5929;51.906;7.674;2024-03-23T13:46:31;9.60;99.90
11744;DHT22;5929;51.906;7.674;2024-03-23T13:48:58;8.70;99.90
11744;DHT22;5929;51.906;7.674;2024-03-23T13:51:24;7.90;99.90
11744;DHT22;5929;51.906;7.674;2024-03-23T13:53:54;7.20;99.90
11744;DHT22;5929;51.906;7.674;2024-03-23T13:56:20;6.80;99.90
11744;DHT22;5929;51.906;7.674;2024-03-23T13:58:47;6.60;99.90
11744;DHT22;5929;51.906;7.674;2024-03-23T14:01:14;6.40;99.90
11744;DHT22;5929;51.906;7.674;2024-03-23T14:03:41;6.40;99.90
11744;DHT22;5929;51.906;7.674;2024-03-23T14:06:07;6.60;99.90
11744;DHT22;5929;51.906;7.674;2024-03-23T14:08:34;6.70;99.90
11744;DHT22;5929;51.906;7.674;2024-03-23T14:11:03;6.80;99.90
11744;DHT22;5929;51.906;7.674;2024-03-23T14:13:30;7.20;99.90
11744;DHT22;5929;51.906;7.674;2024-03-23T14:15:58;7.70;99.90
11744;DHT22;5929;51.906;7.674;2024-03-23T14:18:25;7.90;99.90
11744;DHT22;5929;51.906;7.674;2024-03-23T14:20:52;8.10;99.90
11744;DHT22;5929;51.906;7.674;2024-03-23T14:23:19;8.30;99.90
11744;DHT22;5929;51.906;7.674;2024-03-23T14:25:45;8.50;99.90
11744;DHT22;5929;51.906;7.674;2024-03-23T14:28:13;8.60;99.90
11744;DHT22;5929;51.906;7.674;2024-03-23T14:30:41;8.50;99.90
11744;DHT22;5929;51.906;7.674;2024-03-23T14:33:09;8.50;99.90
11744;DHT22;5929;51.906;7.674;2024-03-23T14:35:35;8.60;99.90
11744;DHT22;5929;51.906;7.674;2024-03-23T14:38:02;8.80;99.90
11744;DHT22;5929;51.906;7.674;2024-03-23T14:40:30;8.80;99.90
11744;DHT22;5929;51.906;7.674;2024-03-23T14:42:57;9.20;99.90
11744;DHT22;5929;51.906;7.674;2024-03-23T14:45:24;9.70;99.90
11744;DHT22;5929;51.906;7.674;2024-03-23T14:47:51;9.70;99.90
11744;DHT22;5929;51.906;7.674;2024-03-23T14:50:17;9.60;99.90
11744;DHT22;5929;51.906;7.674;2024-03-23T14:52:44;9.50;99.90
11744;DHT22;5929;51.906;7.674;2024-03-23T14:55:11;9.30;99.90
11744;DHT22;5929;51.906;7.674;2024-03-23T14:57:38;9.30;99.90
11744;DHT22;5929;51.906;7.674;2024-03-23T15:00:07;9.30;99.90
11744;DHT22;5929;51.906;7.674;2024-03-23T15:02:37;9.30;99.90
11744;DHT22;5929;51.906;7.674;2024-03-23T15:05:04;9.40;99.90
11744;DHT22;5929;51.906;7.674;2024-03-23T15:07:30;9.20;99.90
11744;DHT22;5929;51.906;7.674;2024-03-23T15:09:57;9.20;99.90
11744;DHT22;5929;51.906;7.674;2024-03-23T15:12:23;9.50;99.90
11744;DHT22;5929;51.906;7.674;2024-03-23T15:14:50;9.80;99.90
11744;DHT22;5929;51.906;7.674;2024-03-23T15:17:18;9.70;99.90
11744;DHT22;5929;51.906;7.674;2024-03-23T15:19:46;9.40;99.90
11744;DHT22;5929;51.906;7.674;2024-03-23T15:22:12;9.30;99.90
11744;DHT22;5929;51.906;7.674;2024-03-23T15:24:39;9.20;99.90
11744;DHT22;5929;51.906;7.674;2024-03-23T15:27:05;9.20;99.90
11744;DHT22;5929;51.906;7.674;2024-03-23T15:29:34;9.20;99.90
11744;DHT22;5929;51.906;7.674;2024-03-23T15:32:00;9.00;99.90
11744;DHT22;5929;51.906;7.674;2024-03-23T15:34:27;8.80;99.90
11744;DHT22;5929;51.906;7.674;2024-03-23T15:36:54;8.50;99.90
11744;DHT22;5929;51.906;7.674;2024-03-23T15:39:21;8.60;99.90
11744;DHT22;5929;51.906;7.674;2024-03-23T15:41:47;9.10;99.90
11744;DHT22;5929;51.906;7.674;2024-03-23T15:44:14;9.90;99.90
11744;DHT22;5929;51.906;7.674;2024-03-23T15:46:40;10.50;99.90
11744;DHT22;5929;51.906;7.674;2024-03-23T15:49:07;10.60;99.90
11744;DHT22;5929;51.906;7.674;2024-03-23T15:51:33;10.30;99.90
11744;DHT22;5929;51.906;7.674;2024-03-23T15:54:04;9.90;99.90
11744;DHT22;5929;51.906;7.674;2024-03-23T15:56:30;9.80;99.90
11744;DHT22;5929;51.906;7.674;2024-03-23T15:58:57;10.30;99.90
11744;DHT22;5929;51.906;7.674;2024-03-23T16:01:30;10.40;99.90
11744;DHT22;5929;51.906;7.674;2024-03-23T16:04:01;10.30;99.90
11744;DHT22;5929;51.906;7.674;2024-03-23T16:06:27;10.40;99.90
11744;DHT22;5929;51.906;7.674;2024-03-23T16:08:54;10.50;99.90
11744;DHT22;5929;51.906;7.674;2024-03-23T16:11:21;10.70;99.90
11744;DHT22;5929;51.906;7.674;2024-03-23T16:13:48;10.80;99.90
11744;DHT22;5929;51.906;7.674;2024-03-23T16:16:14;10.90;99.90
11744;DHT22;5929;51.906;7.674;2024-03-23T16:18:41;10.40;99.90
11744;DHT22;5929;51.906;7.674;2024-03-23T16:21:09;10.20;99.90
11744;DHT22;5929;51.906;7.674;2024-03-23T16:23:36;9.90;99.90
11744;DHT22;5929;51.906;7.674;2024-03-23T16:26:03;9.60;99.90
11744;DHT22;5929;51.906;7.674;2024-03-23T16:28:33;9.40;99.90
11744;DHT22;5929;51.906;7.674;2024-03-23T16:31:01;9.20;99.90
11744;DHT22;5929;51.906;7.674;2024-03-23T16:33:29;9.10;99.90
11744;DHT22;5929;51.906;7.674;2024-03-23T16:36:00;9.10;99.90
11744;DHT22;5929;51.906;7.674;2024-03-23T16:38:28;9.10;99.90
11744;DHT22;5929;51.906;7.674;2024-03-23T16:40:55;9.10;99.90
11744;DHT22;5929;51.906;7.674;2024-03-23T16:43:22;9.00;99.90
11744;DHT22;5929;51.906;7.674;2024-03-23T16:45:58;8.90;99.90
11744;DHT22;5929;51.906;7.674;2024-03-23T16:48:27;8.70;99.90
11744;DHT22;5929;51.906;7.674;2024-03-23T16:50:53;8.70;99.90
11744;DHT22;5929;51.906;7.674;2024-03-23T16:53:22;8.60;99.90
11744;DHT22;5929;51.906;7.674;2024-03-23T16:55:54;8.60;99.90